createdAt,value
2022-12-09T00:03:28.802Z,14.01
2022-12-09T00:05:56.030Z,15.01
2022-12-09T00:08:23.404Z,15.11
2022-12-09T00:10:50.452Z,14.33
2022-12-09T00:13:17.521Z,15.58
2022-12-09T00:15:47.555Z,15.56
2022-12-09T00:18:14.882Z,15.36
2022-12-09T00:20:42.007Z,13.62
2022-12-09T00:23:09.237Z,13.39
2022-12-09T00:25:36.337Z,13.31
2022-12-09T00:28:03.761Z,14.29
2022-12-09T00:30:30.728Z,14.46
2022-12-09T00:32:58.317Z,14.62
2022-12-09T00:35:25.748Z,14.07
2022-12-09T00:37:52.854Z,14.09
2022-12-09T00:40:20.263Z,14.28
2022-12-09T00:42:47.736Z,14.29
2022-12-09T00:45:14.827Z,14.51
2022-12-09T00:47:42.234Z,14.37
2022-12-09T00:50:10.000Z,13.66
2022-12-09T00:52:37.662Z,14.26
2022-12-09T00:55:05.224Z,14.09
2022-12-09T00:57:32.637Z,12.55
2022-12-09T00:59:59.828Z,12.33
2022-12-09T01:02:27.229Z,14.18
2022-12-09T01:04:54.941Z,13.62
2022-12-09T01:07:22.084Z,13.43
2022-12-09T01:09:49.240Z,13.51
2022-12-09T01:12:16.323Z,12.78
2022-12-09T01:14:43.747Z,13.42
2022-12-09T01:17:11.022Z,14.06
2022-12-09T01:19:40.902Z,13.06
2022-12-09T01:22:08.368Z,12.61
2022-12-09T01:24:35.640Z,12.66
2022-12-09T01:27:02.983Z,12.80
2022-12-09T01:29:30.414Z,12.60
2022-12-09T01:31:57.617Z,13.19
2022-12-09T01:34:24.750Z,12.76
2022-12-09T01:36:52.172Z,12.85
2022-12-09T01:39:19.345Z,12.43
2022-12-09T01:41:46.587Z,12.83
2022-12-09T01:44:24.941Z,12.89
2022-12-09T01:47:01.858Z,12.81
2022-12-09T01:49:43.340Z,13.01
2022-12-09T01:52:29.137Z,13.30
2022-12-09T01:54:56.255Z,12.95
2022-12-09T01:57:23.515Z,12.78
2022-12-09T01:59:53.228Z,13.47
2022-12-09T02:02:22.191Z,13.64
2022-12-09T02:04:50.999Z,13.92
2022-12-09T02:07:20.079Z,12.91
2022-12-09T02:09:53.525Z,13.36
2022-12-09T02:12:48.011Z,13.88
2022-12-09T02:15:44.937Z,13.36
2022-12-09T02:18:42.745Z,12.78
2022-12-09T02:21:21.459Z,13.37
2022-12-09T02:24:14.769Z,13.64
2022-12-09T02:26:44.599Z,13.13
2022-12-09T02:29:35.346Z,13.53
2022-12-09T02:32:40.059Z,13.43
2022-12-09T02:35:17.433Z,13.22
2022-12-09T02:38:00.778Z,13.47
2022-12-09T02:40:36.237Z,13.19
2022-12-09T02:43:09.423Z,14.00
2022-12-09T02:45:39.412Z,12.83
2022-12-09T02:48:09.466Z,13.71
2022-12-09T02:50:40.093Z,13.48
2022-12-09T02:53:13.048Z,13.82
2022-12-09T02:55:45.533Z,14.02
2022-12-09T02:58:12.885Z,14.39
2022-12-09T03:00:41.932Z,13.64
2022-12-09T03:03:16.897Z,13.95
2022-12-09T03:06:03.577Z,14.06
2022-12-09T03:08:53.240Z,13.40
2022-12-09T03:11:24.238Z,13.50
2022-12-09T03:14:07.414Z,14.44
2022-12-09T03:17:19.009Z,14.04
2022-12-09T03:20:05.131Z,13.87
2022-12-09T03:22:36.292Z,13.53
2022-12-09T03:25:32.222Z,13.24
2022-12-09T03:28:14.345Z,13.40
2022-12-09T03:30:45.405Z,13.90
2022-12-09T03:33:16.561Z,14.09
2022-12-09T03:35:51.941Z,13.65
2022-12-09T03:38:22.977Z,13.56
2022-12-09T03:41:03.596Z,13.43
2022-12-09T03:43:38.867Z,13.62
2022-12-09T03:46:06.464Z,13.59
2022-12-09T03:48:34.582Z,13.89
2022-12-09T03:51:05.017Z,13.87
2022-12-09T03:53:52.219Z,14.14
2022-12-09T03:56:32.407Z,14.38
2022-12-09T03:59:02.118Z,13.85
2022-12-09T04:01:32.784Z,14.14
2022-12-09T04:04:00.638Z,14.74
2022-12-09T04:06:52.978Z,14.17
2022-12-09T04:09:20.705Z,14.36
2022-12-09T04:11:48.127Z,14.18
2022-12-09T04:14:15.980Z,13.98
2022-12-09T04:16:58.190Z,13.87
2022-12-09T04:19:25.438Z,14.25
2022-12-09T04:21:52.807Z,14.92
2022-12-09T04:24:20.346Z,14.89
2022-12-09T04:26:47.616Z,13.89
2022-12-09T04:29:14.843Z,14.42
2022-12-09T04:31:42.257Z,14.10
2022-12-09T04:34:10.282Z,14.05
2022-12-09T04:36:38.681Z,13.99
2022-12-09T04:39:06.861Z,14.33
2022-12-09T04:41:34.446Z,14.28
2022-12-09T04:44:02.022Z,14.04
2022-12-09T04:46:29.343Z,14.52
2022-12-09T04:51:42.232Z,14.53
2022-12-09T04:54:13.809Z,14.80
2022-12-09T04:57:12.684Z,14.75
2022-12-09T04:59:40.113Z,14.47
2022-12-09T05:02:07.240Z,15.60
2022-12-09T05:04:34.555Z,14.90
2022-12-09T05:07:02.299Z,14.58
2022-12-09T05:09:30.230Z,13.95
2022-12-09T05:11:58.696Z,14.50
2022-12-09T05:14:26.394Z,14.75
2022-12-09T05:16:53.837Z,15.11
2022-12-09T05:19:21.291Z,14.82
2022-12-09T05:21:49.175Z,15.19
2022-12-09T05:24:16.243Z,14.80
2022-12-09T05:26:43.594Z,15.21
2022-12-09T05:29:11.033Z,15.31
2022-12-09T05:31:38.449Z,15.07
2022-12-09T05:34:06.199Z,14.88
2022-12-09T05:36:33.628Z,14.69
2022-12-09T05:39:01.057Z,14.71
2022-12-09T05:41:28.592Z,15.17
2022-12-09T05:43:57.220Z,15.23
2022-12-09T05:46:24.962Z,15.23
2022-12-09T05:48:52.466Z,15.06
2022-12-09T05:51:27.862Z,15.06
2022-12-09T05:54:00.264Z,14.68
2022-12-09T05:56:27.773Z,14.83
2022-12-09T05:58:56.702Z,15.05
2022-12-09T06:01:25.772Z,15.07
2022-12-09T06:03:55.256Z,14.95
2022-12-09T06:06:30.971Z,14.41
2022-12-09T06:09:01.872Z,14.52
2022-12-09T06:11:32.967Z,14.72
2022-12-09T06:14:00.880Z,15.28
2022-12-09T06:16:28.343Z,15.04
2022-12-09T06:18:56.760Z,15.22
2022-12-09T06:21:24.520Z,15.07
2022-12-09T06:23:53.769Z,14.47
2022-12-09T06:26:27.013Z,14.52
2022-12-09T06:28:55.523Z,14.55
2022-12-09T06:34:08.377Z,15.02
2022-12-09T06:36:35.715Z,15.39
2022-12-09T06:39:09.952Z,14.86
2022-12-09T06:41:42.159Z,15.03
2022-12-09T06:44:15.805Z,14.81
2022-12-09T06:46:48.860Z,15.15
2022-12-09T06:49:16.569Z,15.31
2022-12-09T06:51:43.952Z,15.27
2022-12-09T06:54:11.078Z,15.30
2022-12-09T06:56:38.571Z,14.92
2022-12-09T06:59:10.754Z,14.69
2022-12-09T07:01:39.027Z,15.18
2022-12-09T07:04:08.268Z,15.42
2022-12-09T07:06:39.160Z,15.23
2022-12-09T07:09:16.598Z,15.08
2022-12-09T07:11:46.350Z,14.95
2022-12-09T07:14:16.125Z,14.48
2022-12-09T07:16:44.552Z,15.16
2022-12-09T07:19:21.340Z,14.89
2022-12-09T07:21:50.461Z,14.63
2022-12-09T07:24:20.265Z,14.68
2022-12-09T07:26:48.723Z,15.69
2022-12-09T07:29:17.793Z,15.20
2022-12-09T07:31:45.307Z,14.99
2022-12-09T07:34:12.825Z,15.73
2022-12-09T07:36:40.811Z,16.28
2022-12-09T07:39:17.123Z,14.80
2022-12-09T07:41:44.850Z,15.43
2022-12-09T07:44:12.790Z,15.77
2022-12-09T07:46:40.929Z,14.93
2022-12-09T07:49:10.065Z,14.80
2022-12-09T07:51:37.647Z,15.07
2022-12-09T07:54:05.452Z,15.79
2022-12-09T07:56:33.587Z,15.47
2022-12-09T07:59:00.999Z,16.11
2022-12-09T08:01:30.165Z,15.95
2022-12-09T08:03:58.264Z,15.84
2022-12-09T08:06:29.491Z,15.39
2022-12-09T08:09:02.969Z,15.44
2022-12-09T08:11:33.142Z,15.91
2022-12-09T08:14:10.930Z,15.39
2022-12-09T08:16:40.301Z,15.08
2022-12-09T08:19:08.352Z,15.10
2022-12-09T08:21:36.821Z,15.31
2022-12-09T08:24:07.876Z,15.64
2022-12-09T08:26:37.605Z,15.17
2022-12-09T08:29:13.046Z,15.57
2022-12-09T08:31:42.909Z,15.17
2022-12-09T08:34:12.204Z,15.39
2022-12-09T08:36:40.853Z,14.61
2022-12-09T08:39:09.326Z,15.13
2022-12-09T08:41:39.368Z,15.69
2022-12-09T08:44:21.103Z,15.33
2022-12-09T08:46:52.269Z,15.70
2022-12-09T08:49:23.375Z,15.15
2022-12-09T08:51:53.706Z,15.42
2022-12-09T08:54:21.735Z,15.23
2022-12-09T08:56:53.687Z,15.23
2022-12-09T08:59:23.236Z,15.76
2022-12-09T09:01:50.741Z,14.91
2022-12-09T09:04:21.841Z,14.82
2022-12-09T09:06:51.633Z,15.05
2022-12-09T09:09:21.367Z,15.31
2022-12-09T09:11:49.060Z,15.45
2022-12-09T09:14:17.435Z,15.73
2022-12-09T09:16:46.253Z,15.33
2022-12-09T09:19:19.857Z,15.53
2022-12-09T09:21:48.817Z,15.79
2022-12-09T09:24:19.808Z,15.12
2022-12-09T09:26:50.092Z,15.99
2022-12-09T09:29:22.062Z,15.55
2022-12-09T09:31:54.556Z,15.66
2022-12-09T09:34:24.120Z,15.49
2022-12-09T09:36:51.988Z,16.43
2022-12-09T09:39:20.856Z,15.97
2022-12-09T09:42:23.630Z,15.11
2022-12-09T09:44:54.980Z,15.48
2022-12-09T09:48:12.627Z,16.10
2022-12-09T09:50:57.168Z,15.40
2022-12-09T09:53:31.430Z,15.57
2022-12-09T09:56:21.878Z,15.47
2022-12-09T09:59:09.847Z,15.57
2022-12-09T10:01:39.540Z,14.83
2022-12-09T10:05:11.362Z,14.88
2022-12-09T10:07:52.608Z,15.60
2022-12-09T10:11:06.273Z,15.37
2022-12-09T10:13:44.642Z,15.99
2022-12-09T10:16:24.440Z,16.21
2022-12-09T10:19:09.632Z,16.21
2022-12-09T10:21:43.282Z,15.93
2022-12-09T10:24:29.687Z,16.07
2022-12-09T10:27:34.339Z,16.12
2022-12-09T10:30:34.194Z,16.39
2022-12-09T10:33:05.027Z,16.06
2022-12-09T10:35:33.712Z,15.48
2022-12-09T10:38:17.581Z,15.42
2022-12-09T10:40:49.906Z,16.37
2022-12-09T10:43:37.544Z,16.30
2022-12-09T10:46:20.475Z,16.43
2022-12-09T10:48:48.915Z,16.71
2022-12-09T10:51:36.522Z,16.48
2022-12-09T10:54:26.519Z,16.20
2022-12-09T10:57:09.686Z,15.99
2022-12-09T10:59:37.591Z,16.10
2022-12-09T11:02:11.017Z,15.70
2022-12-09T11:04:42.250Z,16.05
2022-12-09T11:07:13.586Z,16.02
2022-12-09T11:10:07.800Z,15.97
2022-12-09T11:12:41.340Z,15.89
2022-12-09T11:16:04.806Z,16.22
2022-12-09T11:18:42.665Z,15.65
2022-12-09T11:21:37.192Z,16.55
2022-12-09T11:24:05.759Z,15.42
2022-12-09T11:26:39.345Z,15.31
2022-12-09T11:29:17.961Z,15.32
2022-12-09T11:31:46.309Z,15.21
2022-12-09T11:34:25.061Z,15.37
2022-12-09T11:36:57.923Z,15.15
2022-12-09T11:39:34.879Z,15.77
2022-12-09T11:42:17.838Z,15.15
2022-12-09T11:44:54.570Z,15.53
2022-12-09T11:48:22.671Z,15.99
2022-12-09T11:50:33.588Z,15.96
2022-12-09T11:53:13.050Z,16.10
2022-12-09T11:55:53.333Z,15.85
2022-12-09T11:58:45.001Z,15.45
2022-12-09T12:01:46.692Z,15.28
2022-12-09T12:04:45.524Z,16.53
2022-12-09T12:07:38.409Z,16.84
2022-12-09T12:10:16.164Z,16.71
2022-12-09T12:13:04.110Z,15.90
2022-12-09T12:16:18.924Z,16.12
2022-12-09T12:18:54.194Z,16.07
2022-12-09T12:21:54.893Z,16.28
2022-12-09T12:24:49.977Z,15.57
2022-12-09T12:27:47.978Z,15.68
2022-12-09T12:30:23.882Z,15.87
2022-12-09T12:33:40.806Z,15.39
2022-12-09T12:36:21.344Z,16.10
2022-12-09T12:39:08.316Z,16.79
2022-12-09T12:41:46.514Z,15.47
2022-12-09T12:45:16.998Z,16.11
2022-12-09T12:48:12.524Z,15.83
2022-12-09T12:55:04.500Z,16.71
2022-12-09T12:57:54.746Z,15.96
2022-12-09T13:00:27.187Z,16.23
2022-12-09T13:03:31.729Z,15.87
2022-12-09T13:05:59.874Z,16.27
2022-12-09T13:08:31.318Z,15.68
2022-12-09T13:11:07.589Z,16.45
2022-12-09T13:13:49.334Z,16.20
2022-12-09T13:16:33.472Z,15.82
2022-12-09T13:19:33.663Z,15.58
2022-12-09T13:22:01.760Z,16.05
2022-12-09T13:24:48.108Z,15.95
2022-12-09T13:27:27.130Z,16.35
2022-12-09T13:30:03.909Z,16.02
2022-12-09T13:33:22.299Z,15.60
2022-12-09T13:35:57.732Z,15.79
2022-12-09T13:38:43.325Z,15.65
2022-12-09T13:42:02.922Z,16.04
2022-12-09T13:44:37.266Z,16.33
2022-12-09T13:47:35.012Z,15.96
2022-12-09T13:50:07.467Z,15.76
2022-12-09T13:52:51.719Z,15.39
2022-12-09T13:55:29.648Z,15.27
2022-12-09T13:58:51.211Z,15.89
2022-12-09T14:01:36.574Z,15.59
2022-12-09T14:04:38.115Z,15.14
2022-12-09T14:07:14.049Z,15.70
2022-12-09T14:10:45.358Z,15.30
2022-12-09T14:13:39.136Z,14.72
2022-12-09T14:16:22.502Z,14.99
2022-12-09T14:18:49.844Z,16.24
2022-12-09T14:21:19.901Z,15.48
2022-12-09T14:24:11.776Z,15.87
2022-12-09T14:26:52.679Z,15.20
2022-12-09T14:29:47.642Z,15.09
2022-12-09T14:32:35.317Z,15.51
2022-12-09T14:35:11.672Z,15.43
2022-12-09T14:38:21.535Z,16.05
2022-12-09T14:41:15.268Z,15.56
2022-12-09T14:44:05.154Z,15.95
2022-12-09T14:46:43.937Z,15.26
2022-12-09T14:49:27.305Z,15.50
2022-12-09T14:52:11.327Z,16.10
2022-12-09T14:54:46.468Z,15.39
2022-12-09T14:57:31.862Z,15.74
2022-12-09T14:59:59.072Z,15.64
2022-12-09T15:02:31.942Z,15.42
2022-12-09T15:05:02.692Z,15.31
2022-12-09T15:07:35.000Z,15.30
2022-12-09T15:10:22.307Z,15.78
2022-12-09T15:12:56.852Z,15.84
2022-12-09T15:15:34.720Z,-143.63
2022-12-09T15:18:13.619Z,-143.63
2022-12-09T15:20:43.758Z,-143.63
2022-12-09T15:23:45.164Z,-143.63
2022-12-09T15:26:33.008Z,-143.63
2022-12-09T15:29:01.514Z,-143.63
2022-12-09T15:31:32.153Z,-143.63
2022-12-09T15:34:11.218Z,-143.63
2022-12-09T15:36:44.732Z,-143.63
2022-12-09T15:39:40.475Z,-143.63
2022-12-09T15:42:14.677Z,-143.63
2022-12-09T15:45:03.606Z,-143.63
2022-12-09T15:47:52.271Z,-143.63
2022-12-09T15:50:49.756Z,-143.63
2022-12-09T15:53:40.723Z,-143.63
2022-12-09T15:56:38.652Z,-143.63
2022-12-09T15:59:20.973Z,-143.63
2022-12-09T16:01:56.655Z,-143.63
2022-12-09T16:04:30.638Z,-143.63
2022-12-09T16:07:10.236Z,-143.63
2022-12-09T16:09:37.558Z,-143.63
2022-12-09T16:12:05.778Z,-143.63
2022-12-09T16:14:44.753Z,-143.63
2022-12-09T16:17:31.504Z,-143.63
2022-12-09T16:20:19.358Z,-143.63
2022-12-09T16:22:50.687Z,-143.63
2022-12-09T16:25:28.255Z,-143.63
2022-12-09T16:28:04.504Z,-143.63
2022-12-09T16:30:43.368Z,-143.63
2022-12-09T16:33:24.353Z,-143.63
2022-12-09T16:36:05.123Z,-143.63
2022-12-09T16:38:38.585Z,-143.63
2022-12-09T16:41:12.421Z,-143.63
2022-12-09T16:43:55.885Z,-143.63
2022-12-09T16:46:37.334Z,-143.63
2022-12-09T16:49:05.423Z,-143.63
2022-12-09T16:51:33.706Z,-143.63
2022-12-09T16:54:01.758Z,-143.63
2022-12-09T16:56:32.135Z,-143.63
2022-12-09T16:58:59.933Z,-143.63
2022-12-09T17:01:35.691Z,-143.63
2022-12-09T17:04:18.031Z,-143.63
2022-12-09T17:06:45.922Z,-143.63
2022-12-09T17:09:13.716Z,-143.63
2022-12-09T17:11:46.953Z,-143.63
2022-12-09T17:14:16.854Z,-143.63
2022-12-09T17:16:44.188Z,-143.63
2022-12-09T17:19:11.440Z,-143.63
2022-12-09T17:21:38.679Z,-143.63
2022-12-09T17:24:06.367Z,-143.63
2022-12-09T17:26:33.530Z,-143.63
2022-12-09T17:29:01.997Z,-143.63
2022-12-09T17:31:30.217Z,-143.63
2022-12-09T17:33:58.058Z,-143.63
2022-12-09T17:36:25.314Z,-143.63
2022-12-09T17:38:52.624Z,-143.63
2022-12-09T17:41:23.675Z,-143.63
2022-12-09T17:43:51.469Z,-143.63
2022-12-09T17:46:18.894Z,-143.63
2022-12-09T17:48:46.417Z,-143.63
2022-12-09T17:51:18.188Z,-143.63
2022-12-09T17:53:46.906Z,-143.63
2022-12-09T17:56:22.914Z,-143.63
2022-12-09T17:59:15.983Z,-143.63
2022-12-09T18:01:46.626Z,-143.63
2022-12-09T18:04:15.710Z,-143.63
2022-12-09T18:06:47.137Z,-143.63
2022-12-09T18:09:19.969Z,-143.63
2022-12-09T18:11:48.415Z,-143.63
2022-12-09T18:14:17.148Z,-143.63
2022-12-09T18:16:46.724Z,-143.63
2022-12-09T18:19:18.611Z,-143.63
2022-12-09T18:21:46.165Z,-143.63
2022-12-09T18:24:13.789Z,-143.63
2022-12-09T18:26:42.115Z,-143.63
2022-12-09T18:29:12.058Z,-143.63
2022-12-09T18:31:40.574Z,-143.63
2022-12-09T18:34:08.480Z,-143.63
2022-12-09T18:36:35.771Z,-143.63
2022-12-09T18:39:04.192Z,-143.63
2022-12-09T18:41:32.703Z,-143.63
2022-12-09T18:44:05.855Z,-143.63
2022-12-09T18:46:37.006Z,-143.63
2022-12-09T18:49:11.529Z,-143.63
2022-12-09T18:51:41.702Z,-143.63
2022-12-09T18:54:14.685Z,-143.63
2022-12-09T18:56:42.201Z,-143.63
2022-12-09T18:59:10.836Z,-143.63
2022-12-09T19:01:42.230Z,-143.63
2022-12-09T19:04:18.658Z,-143.63
2022-12-09T19:06:49.804Z,-143.63
2022-12-09T19:09:21.234Z,-143.63
2022-12-09T19:11:50.877Z,-143.63
2022-12-09T19:14:22.145Z,-143.63
2022-12-09T19:16:50.515Z,-143.63
2022-12-09T19:19:25.348Z,-143.63
2022-12-09T19:21:54.693Z,-143.63
2022-12-09T19:24:30.095Z,-143.63
2022-12-09T19:26:58.312Z,-143.63
2022-12-09T19:29:28.202Z,-143.63
2022-12-09T19:31:57.414Z,-143.63
2022-12-09T19:34:29.423Z,-143.63
2022-12-09T19:37:00.069Z,-143.63
2022-12-09T19:39:31.552Z,-143.63
2022-12-09T19:41:59.837Z,-143.63
2022-12-09T19:44:52.594Z,-143.63
2022-12-09T19:47:15.625Z,-143.63
2022-12-09T19:49:44.644Z,-143.63
2022-12-09T19:52:12.828Z,-143.63
2022-12-09T19:54:40.507Z,-143.63
2022-12-09T19:57:07.941Z,-143.63
2022-12-09T19:59:36.184Z,-143.63
2022-12-09T20:02:12.161Z,-143.63
2022-12-09T20:04:50.626Z,-143.63
2022-12-09T20:07:23.182Z,-143.63
2022-12-09T20:09:51.329Z,-143.63
2022-12-09T20:12:19.557Z,-143.63
2022-12-09T20:14:47.021Z,-143.63
2022-12-09T20:17:17.619Z,-143.63
2022-12-09T20:19:44.844Z,-143.63
2022-12-09T20:22:12.303Z,-143.63
2022-12-09T20:24:39.713Z,-143.63
2022-12-09T20:27:07.366Z,-143.63
2022-12-09T20:29:37.921Z,-143.63
2022-12-09T20:32:07.897Z,-143.63
2022-12-09T20:34:36.253Z,-143.63
2022-12-09T20:37:03.835Z,-143.63
2022-12-09T20:39:31.197Z,-143.63
2022-12-09T20:41:59.492Z,-143.63
2022-12-09T20:44:27.079Z,-143.63
2022-12-09T20:46:54.675Z,-143.63
2022-12-09T20:49:26.742Z,-143.63
2022-12-09T20:51:55.387Z,-143.63
2022-12-09T20:54:23.952Z,-143.63
2022-12-09T20:56:53.210Z,-143.63
2022-12-09T20:59:20.937Z,-143.63
2022-12-09T21:01:48.534Z,-143.63
2022-12-09T21:04:16.352Z,-143.63
2022-12-09T21:06:43.902Z,-143.63
2022-12-09T21:09:19.011Z,-143.63
2022-12-09T21:11:49.944Z,-143.63
2022-12-09T21:14:18.862Z,-143.63
2022-12-09T21:16:50.559Z,-143.63
2022-12-09T21:19:33.804Z,-143.63
2022-12-09T21:22:05.699Z,-143.63
2022-12-09T21:24:33.299Z,-143.63
2022-12-09T21:27:01.405Z,-143.63
2022-12-09T21:29:32.537Z,-143.63
2022-12-09T21:32:02.735Z,-143.63
2022-12-09T21:34:30.222Z,-143.63
2022-12-09T21:36:59.040Z,-143.63
2022-12-09T21:39:28.290Z,-143.63
2022-12-09T21:41:58.702Z,-143.63
2022-12-09T21:44:27.313Z,-143.63
2022-12-09T21:46:55.880Z,-143.63
2022-12-09T21:49:24.165Z,-143.63
2022-12-09T21:51:51.735Z,-143.63
2022-12-09T21:54:23.391Z,-143.63
2022-12-09T21:56:51.134Z,-143.63
2022-12-09T21:59:18.651Z,-143.63
2022-12-09T22:04:18.420Z,-143.63
2022-12-09T22:06:50.437Z,-143.63
2022-12-09T22:09:21.532Z,-143.63
2022-12-09T22:11:49.687Z,-143.63
2022-12-09T22:14:19.589Z,-143.63
2022-12-09T22:16:48.039Z,-143.63
2022-12-09T22:19:21.754Z,-143.63
2022-12-09T22:21:49.688Z,-143.63
2022-12-09T22:24:18.452Z,-143.63
2022-12-09T22:26:47.783Z,-143.63
2022-12-09T22:29:27.540Z,-143.63
2022-12-09T22:31:54.865Z,-143.63
2022-12-09T22:34:23.595Z,-143.63
2022-12-09T22:36:52.049Z,-143.63
2022-12-09T22:39:23.149Z,-143.63
2022-12-09T22:42:18.740Z,-143.63
2022-12-09T22:44:50.599Z,-143.63
2022-12-09T22:47:31.680Z,-143.63
2022-12-09T22:49:59.956Z,-143.63
2022-12-09T22:52:28.362Z,-143.63
2022-12-09T22:54:57.152Z,-143.63
2022-12-09T22:57:24.559Z,-143.63
2022-12-09T22:59:59.395Z,-143.63
2022-12-09T23:02:32.162Z,-143.63
2022-12-09T23:04:59.934Z,-143.63
2022-12-09T23:10:16.356Z,-143.63
2022-12-09T23:12:48.937Z,-143.63
2022-12-09T23:15:18.345Z,-143.63
2022-12-09T23:17:48.753Z,-143.63
2022-12-09T23:20:16.277Z,-143.63
2022-12-09T23:22:50.273Z,-143.63
2022-12-09T23:25:19.510Z,-143.63
2022-12-09T23:27:48.800Z,-143.63
2022-12-09T23:30:21.602Z,-143.63
2022-12-09T23:32:52.470Z,-143.63
2022-12-09T23:35:19.783Z,-143.63
2022-12-09T23:37:48.092Z,-143.63
2022-12-09T23:40:15.332Z,-143.63
2022-12-09T23:42:43.428Z,-143.63
2022-12-09T23:45:11.395Z,-143.63
2022-12-09T23:47:41.041Z,-143.63
2022-12-09T23:50:11.765Z,-143.63
2022-12-09T23:52:40.318Z,-143.63
2022-12-09T23:55:10.693Z,-143.63
2022-12-09T23:57:42.440Z,-143.63
